Time;durP1;ratioP1;P1;durP2;ratioP2;P2;SDS_P1;SDS_P2;PMS_P1;PMS_P2;Temp;Humidity;BMP_temperature;BMP_pressure;BME280_temperature;BME280_humidity;BME280_pressure;Samples;Min_cycle;Max_cycle;Signal;HPM_P1;HPM_P2
2023/12/17 00:01:01;;;;;;;19.88;14.32;;;;;;;5.02;78.14;100975.00;5093173;28;20394;-48
2023/12/17 00:03:27;;;;;;;32.35;26.63;;;;;;;4.79;79.26;100961.84;5093122;28;20052;-49
2023/12/17 00:05:53;;;;;;;38.35;31.90;;;;;;;4.67;79.56;100958.31;5093036;28;20052;-48
2023/12/17 00:08:20;;;;;;;20.30;15.43;;;;;;;4.59;80.69;100966.63;5091695;28;20435;-48
2023/12/17 00:10:46;;;;;;;23.60;17.27;;;;;;;4.39;80.99;100957.59;5091350;28;20097;-49
2023/12/17 00:13:12;;;;;;;21.77;18.27;;;;;;;4.32;81.67;100964.13;5092934;28;20032;-48
2023/12/17 00:15:38;;;;;;;19.02;13.10;;;;;;;4.39;82.06;100956.78;5092782;28;20027;-48
2023/12/17 00:18:05;;;;;;;18.73;13.55;;;;;;;4.36;82.37;100959.56;5092855;28;20092;-48
2023/12/17 00:20:32;;;;;;;24.38;17.60;;;;;;;4.91;85.27;100957.53;5092806;28;20028;-48
2023/12/17 00:22:57;;;;;;;34.80;25.23;;;;;;;5.62;84.88;100958.53;5092837;28;20125;-48
2023/12/17 00:25:23;;;;;;;37.65;30.63;;;;;;;6.22;83.27;100955.88;5092880;28;20046;-48
2023/12/17 00:27:49;;;;;;;18.85;14.07;;;;;;;6.81;82.18;100953.06;5092698;28;20020;-48
2023/12/17 00:30:15;;;;;;;26.10;19.20;;;;;;;7.19;79.80;100959.69;5092600;28;20024;-49
2023/12/17 00:32:40;;;;;;;21.25;15.65;;;;;;;7.52;78.66;100958.72;5092437;28;20493;-49
2023/12/17 00:35:06;;;;;;;32.33;24.48;;;;;;;7.77;77.54;100957.56;5092573;28;20628;-49
2023/12/17 00:37:32;;;;;;;22.35;15.10;;;;;;;8.00;76.62;100952.22;5092488;28;20020;-49
2023/12/17 00:39:58;;;;;;;18.42;13.05;;;;;;;8.21;75.24;100954.84;5092447;28;20027;-49
2023/12/17 00:42:23;;;;;;;21.65;13.40;;;;;;;8.29;73.73;100952.41;5092345;28;20035;-49
2023/12/17 00:44:49;;;;;;;28.70;20.73;;;;;;;8.16;73.30;100947.38;5092388;28;20397;-49
2023/12/17 00:47:15;;;;;;;16.15;13.40;;;;;;;7.96;73.35;100942.97;5092264;28;20024;-49
2023/12/17 00:49:41;;;;;;;18.73;15.73;;;;;;;7.72;72.76;100951.88;5092323;28;20502;-49
2023/12/17 00:52:07;;;;;;;73.68;62.40;;;;;;;7.28;72.78;100948.47;5092407;28;20363;-49
2023/12/17 00:54:32;;;;;;;43.72;36.33;;;;;;;7.03;74.01;100949.63;5092187;28;20050;-49
2023/12/17 00:56:58;;;;;;;18.27;14.20;;;;;;;6.88;73.59;100948.19;5092189;28;20020;-49
2023/12/17 00:59:24;;;;;;;19.23;15.27;;;;;;;6.47;73.88;100958.28;5091659;28;20077;-49
2023/12/17 01:01:51;;;;;;;50.10;39.85;;;;;;;5.98;74.40;100956.78;5092047;28;20035;-49
2023/12/17 01:04:17;;;;;;;60.60;47.83;;;;;;;5.70;75.83;100955.38;5092337;28;20386;-49
2023/12/17 01:06:43;;;;;;;28.70;24.15;;;;;;;5.64;76.28;100948.81;5091991;28;20026;-49
2023/12/17 01:09:10;;;;;;;29.00;20.85;;;;;;;5.44;76.47;100939.03;5090709;28;20073;-49
2023/12/17 01:11:36;;;;;;;33.65;26.70;;;;;;;5.13;76.85;100939.47;5090314;28;20127;-49
2023/12/17 01:14:02;;;;;;;22.38;17.40;;;;;;;5.02;77.90;100949.81;5091901;28;20123;-49
2023/12/17 01:16:29;;;;;;;25.38;19.38;;;;;;;4.74;77.67;100936.13;5091855;28;20095;-49
2023/12/17 01:18:55;;;;;;;25.27;17.95;;;;;;;4.45;78.85;100932.94;5091964;28;20062;-48
2023/12/17 01:21:21;;;;;;;1110.47;675.40;;;;;;;4.31;79.02;100923.50;5091814;28;20028;-48
2023/12/17 01:23:47;;;;;;;1174.75;729.08;;;;;;;4.15;80.04;100920.28;5091804;28;20486;-48
2023/12/17 01:26:20;;;;;;;258.77;171.52;;;;;;;4.01;80.38;100926.38;5091770;28;20024;-48
2023/12/17 01:28:48;;;;;;;253.32;176.10;;;;;;;4.12;82.26;100925.66;5091722;28;20016;-48
2023/12/17 01:31:16;;;;;;;136.65;99.28;;;;;;;4.47;83.36;100925.88;5091490;28;20032;-48
2023/12/17 01:33:42;;;;;;;65.28;49.20;;;;;;;4.74;84.23;100925.72;5091744;28;20050;-49
2023/12/17 01:36:07;;;;;;;45.42;34.90;;;;;;;4.92;83.19;100928.78;5090503;28;20028;-48
2023/12/17 01:38:33;;;;;;;31.55;22.70;;;;;;;4.71;81.87;100928.53;5090392;28;20025;-48
2023/12/17 01:40:59;;;;;;;23.15;16.95;;;;;;;4.30;81.65;100933.97;5091654;28;20024;-49
2023/12/17 01:43:25;;;;;;;21.80;17.48;;;;;;;3.81;81.00;100938.09;5073541;28;20394;-48
2023/12/17 01:45:53;;;;;;;67.28;43.60;;;;;;;3.40;82.90;100933.81;5091588;28;20024;-48
2023/12/17 01:48:19;;;;;;;45.65;31.90;;;;;;;3.47;84.44;100939.47;5091636;28;20024;-49
2023/12/17 01:50:45;;;;;;;35.00;25.45;;;;;;;3.63;84.43;100932.34;5091649;28;20020;-49
2023/12/17 01:53:12;;;;;;;31.73;19.67;;;;;;;3.77;84.85;100929.66;5091485;28;20095;-49
2023/12/17 01:55:40;;;;;;;28.67;20.45;;;;;;;3.91;84.31;100925.34;5091581;28;20028;-48
2023/12/17 01:58:08;;;;;;;25.92;18.63;;;;;;;4.19;85.11;100917.34;5091522;28;20032;-49
2023/12/17 02:00:36;;;;;;;25.38;19.25;;;;;;;4.41;84.20;100910.69;5091502;28;20020;-49
2023/12/17 02:03:03;;;;;;;153.57;112.57;;;;;;;4.63;84.31;100904.84;5091462;28;20032;-48
2023/12/17 02:05:33;;;;;;;68.72;52.60;;;;;;;4.83;84.01;100903.44;5091417;28;20032;-49
2023/12/17 02:07:59;;;;;;;85.10;58.53;;;;;;;4.88;82.98;100901.34;5091470;28;20020;-48
2023/12/17 02:10:26;;;;;;;67.55;47.97;;;;;;;4.84;81.82;100893.88;5092748;28;20046;-50
2023/12/17 02:12:52;;;;;;;28.65;21.60;;;;;;;4.59;80.77;100899.03;5095256;28;20038;-49
2023/12/17 02:15:18;;;;;;;23.52;17.17;;;;;;;4.32;81.00;100896.53;5095256;28;20024;-49
2023/12/17 02:17:44;;;;;;;54.33;36.15;;;;;;;4.46;82.83;100889.56;5095126;28;20030;-48
2023/12/17 02:20:10;;;;;;;52.97;39.25;;;;;;;4.94;83.36;100887.06;5095080;28;20515;-49
2023/12/17 02:22:38;;;;;;;158.68;113.28;;;;;;;5.52;83.13;100895.03;5093790;28;20028;-49
2023/12/17 02:25:05;;;;;;;27.75;22.10;;;;;;;5.99;82.18;100890.69;5094947;28;20024;-49
2023/12/17 02:27:30;;;;;;;55.15;40.15;;;;;;;6.10;80.14;100882.06;5095011;28;20106;-49
2023/12/17 02:29:56;;;;;;;30.35;21.13;;;;;;;5.89;78.40;100874.03;5095020;28;20091;-48
2023/12/17 02:32:23;;;;;;;65.40;47.88;;;;;;;5.60;78.44;100861.44;5094767;28;20401;-49
2023/12/17 02:34:50;;;;;;;42.05;34.28;;;;;;;5.35;77.00;100867.63;5094888;28;20028;-48
2023/12/17 02:37:17;;;;;;;18.25;15.02;;;;;;;5.01;78.17;100875.28;5094823;28;20024;-49
2023/12/17 02:39:43;;;;;;;25.90;17.35;;;;;;;4.42;77.56;100880.31;5093488;28;20027;-48
2023/12/17 02:42:09;;;;;;;20.13;14.38;;;;;;;3.95;78.34;100883.47;5094734;28;20024;-49
2023/12/17 02:44:35;;;;;;;21.35;15.85;;;;;;;3.47;79.38;100877.16;5094674;28;20108;-48
2023/12/17 02:47:01;;;;;;;22.85;16.08;;;;;;;3.11;80.37;100863.03;5093362;28;20472;-48
2023/12/17 02:49:27;;;;;;;62.72;51.50;;;;;;;3.12;81.97;100869.88;5094659;28;20024;-49
2023/12/17 02:51:55;;;;;;;32.70;25.90;;;;;;;3.47;83.68;100870.19;5094578;28;20056;-48
2023/12/17 02:54:21;;;;;;;54.70;43.58;;;;;;;3.85;83.83;100869.44;5094583;28;20027;-49
2023/12/17 02:56:47;;;;;;;34.10;26.52;;;;;;;4.16;82.93;100868.16;5094487;28;20397;-49
2023/12/17 02:59:14;;;;;;;507.90;416.25;;;;;;;4.11;81.08;100851.25;5094416;28;20028;-49
2023/12/17 03:01:41;;;;;;;139.65;96.82;;;;;;;3.90;81.22;100846.56;5093032;28;20036;-48
2023/12/17 03:04:07;;;;;;;94.72;67.63;;;;;;;3.83;81.42;100853.13;5093048;28;20016;-48
2023/12/17 03:06:35;;;;;;;35.42;26.45;;;;;;;3.76;81.48;100852.72;5093194;28;20039;-49
2023/12/17 03:09:01;;;;;;;23.00;17.42;;;;;;;3.93;82.28;100848.97;5092939;28;20116;-48
2023/12/17 03:11:26;;;;;;;41.65;34.50;;;;;;;4.05;82.46;100846.47;5093782;28;20131;-49
2023/12/17 03:13:52;;;;;;;35.97;25.20;;;;;;;4.05;81.62;100847.31;5094186;28;20514;-48
2023/12/17 03:16:18;;;;;;;19.83;15.57;;;;;;;3.90;80.16;100841.38;5092722;28;20397;-48
2023/12/17 03:18:43;;;;;;;14.40;9.55;;;;;;;3.63;78.20;100841.47;5094077;28;20020;-48
2023/12/17 03:21:09;;;;;;;29.45;19.00;;;;;;;3.06;79.05;100833.94;5093529;28;20016;-49
2023/12/17 03:23:35;;;;;;;24.08;15.60;;;;;;;2.98;82.17;100831.88;5093957;28;20081;-49
2023/12/17 03:26:04;;;;;;;21.73;16.83;;;;;;;3.09;83.13;100838.97;5092637;28;20494;-48
2023/12/17 03:28:30;;;;;;;20.25;15.02;;;;;;;3.09;83.21;100838.97;5093914;28;20016;-48
2023/12/17 03:30:56;;;;;;;28.17;21.80;;;;;;;3.01;83.28;100826.47;5092453;28;20031;-49
2023/12/17 03:33:22;;;;;;;22.95;18.35;;;;;;;2.96;82.88;100828.56;5093719;28;20123;-48
2023/12/17 03:35:48;;;;;;;20.70;11.98;;;;;;;2.81;81.87;100819.97;5093748;28;20024;-48
2023/12/17 03:38:14;;;;;;;18.77;11.27;;;;;;;2.51;81.98;100826.16;5093656;28;20023;-48
2023/12/17 03:40:40;;;;;;;18.92;10.95;;;;;;;2.15;83.21;100824.91;5093585;28;20028;-48
2023/12/17 03:43:07;;;;;;;18.88;10.85;;;;;;;1.92;84.70;100820.28;5093596;28;20497;-49
2023/12/17 03:45:36;;;;;;;17.42;10.63;;;;;;;1.77;86.20;100829.78;5092179;28;20028;-46
2023/12/17 03:48:02;;;;;;;23.42;14.18;;;;;;;1.65;88.02;100833.09;5092213;28;20501;-46
2023/12/17 03:50:28;;;;;;;21.45;13.27;;;;;;;1.67;89.05;100824.34;5092052;28;20028;-46
2023/12/17 03:52:54;;;;;;;23.27;15.73;;;;;;;1.66;89.80;100822.66;5093354;28;20028;-46
2023/12/17 03:55:20;;;;;;;22.60;16.20;;;;;;;1.80;90.25;100816.66;5093307;28;20490;-46
2023/12/17 03:57:49;;;;;;;23.33;19.80;;;;;;;1.67;89.25;100832.09;5093282;28;20038;-46
2023/12/17 04:00:15;;;;;;;25.30;16.50;;;;;;;1.59;89.82;100840.31;5093175;28;20397;-46
2023/12/17 04:02:41;;;;;;;26.25;18.45;;;;;;;1.68;90.81;100838.09;5091871;28;20047;-46
2023/12/17 04:05:08;;;;;;;24.02;16.73;;;;;;;1.79;91.45;100836.53;5093092;28;20020;-46
2023/12/17 04:07:34;;;;;;;22.05;15.23;;;;;;;1.95;90.28;100835.63;5091727;28;20062;-46
2023/12/17 04:10:01;;;;;;;23.10;16.40;;;;;;;1.89;89.93;100842.03;5093124;28;20455;-46
2023/12/17 04:12:27;;;;;;;23.15;14.93;;;;;;;2.43;92.63;100843.94;5092717;28;20047;-46
2023/12/17 04:14:53;;;;;;;22.77;13.80;;;;;;;3.24;92.65;100832.78;5092972;28;20059;-46
2023/12/17 04:17:18;;;;;;;21.95;14.15;;;;;;;3.93;91.43;100840.34;5091564;28;20463;-46
2023/12/17 04:19:44;;;;;;;23.50;16.20;;;;;;;4.40;90.67;100837.06;5092853;28;20028;-46
2023/12/17 04:22:10;;;;;;;84.55;68.88;;;;;;;4.68;90.39;100842.09;5092739;28;20112;-47
2023/12/17 04:24:36;;;;;;;28.67;22.13;;;;;;;4.61;89.70;100839.09;5092759;28;20085;-48
2023/12/17 04:27:01;;;;;;;31.25;17.48;;;;;;;4.40;89.30;100837.06;5092679;28;20020;-48
2023/12/17 04:29:27;;;;;;;25.45;17.02;;;;;;;4.20;89.41;100833.28;5092623;28;20024;-48
2023/12/17 04:31:53;;;;;;;54.50;42.65;;;;;;;4.30;91.15;100838.63;5092309;28;20024;-48
2023/12/17 04:34:18;;;;;;;27.60;19.75;;;;;;;4.39;91.34;100831.97;5092019;28;20157;-48
2023/12/17 04:36:44;;;;;;;33.25;18.40;;;;;;;4.47;91.83;100837.47;5092584;28;20510;-48
2023/12/17 04:39:10;;;;;;;32.67;19.73;;;;;;;4.67;92.35;100838.66;5092488;28;20031;-48
2023/12/17 04:41:39;;;;;;;29.70;18.70;;;;;;;4.78;91.66;100840.50;5092416;28;20103;-48
2023/12/17 04:44:06;;;;;;;37.05;19.65;;;;;;;4.61;90.58;100831.31;5092373;28;20028;-48
2023/12/17 04:46:32;;;;;;;43.85;32.97;;;;;;;4.35;90.86;100843.53;5092403;28;20452;-48
2023/12/17 04:48:58;;;;;;;48.90;32.08;;;;;;;4.14;90.76;100835.44;5091086;28;20112;-48
2023/12/17 04:51:25;;;;;;;29.17;20.90;;;;;;;3.91;90.99;100830.06;5090883;28;20115;-48
2023/12/17 04:53:51;;;;;;;32.35;21.17;;;;;;;3.75;91.19;100834.63;5090989;28;20027;-48
2023/12/17 04:56:21;;;;;;;229.60;178.50;;;;;;;3.71;92.37;100844.38;5090879;28;20456;-48
2023/12/17 04:58:47;;;;;;;34.00;23.15;;;;;;;3.87;93.67;100851.16;5092205;28;20379;-48
2023/12/17 05:01:13;;;;;;;64.13;49.53;;;;;;;4.32;96.17;100852.34;5092103;28;20023;-48
2023/12/17 05:03:39;;;;;;;30.55;19.30;;;;;;;4.88;96.13;100856.28;5090796;28;20024;-48
2023/12/17 05:06:05;;;;;;;30.00;20.48;;;;;;;5.40;95.58;100857.72;5090776;28;20415;-48
2023/12/17 05:08:31;;;;;;;31.10;20.70;;;;;;;5.45;94.08;100850.38;5092086;28;20486;-48
2023/12/17 05:10:57;;;;;;;29.17;19.48;;;;;;;5.73;94.50;100846.53;5091775;28;20040;-49
2023/12/17 05:13:23;;;;;;;30.98;20.67;;;;;;;5.97;93.44;100849.09;5091987;28;20032;-49
2023/12/17 05:15:49;;;;;;;29.05;19.17;;;;;;;5.84;91.94;100852.72;5091907;28;20028;-49
2023/12/17 05:18:15;;;;;;;29.52;18.50;;;;;;;5.52;89.63;100855.97;5091993;28;20069;-48
2023/12/17 05:20:41;;;;;;;30.30;19.45;;;;;;;5.16;89.17;100850.75;5091939;28;20020;-49
2023/12/17 05:23:08;;;;;;;25.00;18.00;;;;;;;4.86;88.26;100851.19;5090801;28;20032;-48
2023/12/17 05:25:34;;;;;;;27.67;18.48;;;;;;;4.57;89.39;100861.88;5091849;28;20525;-48
2023/12/17 05:28:00;;;;;;;30.05;22.35;;;;;;;4.48;90.56;100864.28;5091871;28;20024;-48
2023/12/17 05:30:26;;;;;;;24.13;17.50;;;;;;;4.80;92.90;100869.84;5090464;28;20455;-48
2023/12/17 05:32:52;;;;;;;29.88;19.90;;;;;;;4.90;92.47;100859.59;5091987;28;20467;-48
2023/12/17 05:35:17;;;;;;;28.70;18.83;;;;;;;4.83;91.98;100872.22;5091791;28;20024;-48
2023/12/17 05:37:43;;;;;;;27.55;18.45;;;;;;;5.23;94.02;100866.72;5090397;28;20024;-48
2023/12/17 05:40:09;;;;;;;23.08;16.88;;;;;;;5.71;93.98;100864.06;5090507;28;20107;-48
2023/12/17 05:42:36;;;;;;;25.40;18.02;;;;;;;6.01;92.78;100852.28;5091807;28;20036;-48
2023/12/17 05:45:02;;;;;;;26.00;17.83;;;;;;;6.25;91.47;100857.41;5094431;28;20024;-48
2023/12/17 05:47:27;;;;;;;30.13;19.25;;;;;;;6.44;90.68;100855.97;5094465;28;20020;-49
2023/12/17 05:49:53;;;;;;;22.17;17.92;;;;;;;6.22;88.25;100859.41;5095996;28;20020;-49
2023/12/17 05:52:19;;;;;;;24.00;18.38;;;;;;;6.01;88.19;100870.53;5095508;28;20031;-49
2023/12/17 05:54:45;;;;;;;22.88;15.27;;;;;;;5.74;87.31;100866.44;5094386;28;20375;-48
2023/12/17 05:57:10;;;;;;;28.25;17.67;;;;;;;5.37;86.83;100874.38;5094290;28;20118;-48
2023/12/17 05:59:36;;;;;;;21.25;15.07;;;;;;;5.21;87.78;100886.84;5094309;28;20059;-49
2023/12/17 06:02:02;;;;;;;28.60;17.00;;;;;;;5.29;87.53;100883.69;5095463;28;20493;-49
2023/12/17 06:04:28;;;;;;;26.35;19.25;;;;;;;5.07;85.96;100889.59;5095505;28;20076;-49
2023/12/17 06:06:55;;;;;;;23.30;17.33;;;;;;;4.76;85.01;100890.03;5094110;28;20059;-48
2023/12/17 06:09:22;;;;;;;60.20;15.23;;;;;;;4.53;84.75;100889.03;5095396;28;20024;-48
2023/12/17 06:11:49;;;;;;;71.70;16.88;;;;;;;4.26;84.05;100886.56;5095048;28;20410;-48
2023/12/17 06:14:17;;;;;;;133.88;23.33;;;;;;;3.93;84.03;100898.31;5095608;28;20020;-49
2023/12/17 06:16:44;;;;;;;140.48;19.50;;;;;;;3.63;83.87;100901.19;5095138;28;20031;-48
2023/12/17 06:19:10;;;;;;;34.90;18.00;;;;;;;3.46;84.83;100896.25;5095128;28;20024;-48
2023/12/17 06:21:36;;;;;;;34.67;22.65;;;;;;;3.36;85.48;100899.47;5093856;28;20111;-48
2023/12/17 06:24:03;;;;;;;34.45;22.77;;;;;;;3.32;86.26;100898.00;5093797;28;20404;-48
2023/12/17 06:26:30;;;;;;;30.85;21.08;;;;;;;3.61;87.57;100900.47;5094990;28;20099;-49
2023/12/17 06:28:56;;;;;;;25.50;16.02;;;;;;;4.00;87.76;100903.94;5095039;28;20028;-48
2023/12/17 06:31:23;;;;;;;43.38;15.48;;;;;;;4.56;88.27;100921.78;5094849;28;20510;-49
2023/12/17 06:33:49;;;;;;;26.70;15.23;;;;;;;4.91;87.03;100913.28;5095180;28;20464;-49
2023/12/17 06:36:15;;;;;;;35.25;16.42;;;;;;;5.24;85.25;100910.06;5093510;28;20035;-49
2023/12/17 06:38:41;;;;;;;27.67;17.20;;;;;;;5.51;84.01;100898.56;5093652;28;20082;-49
2023/12/17 06:41:10;;;;;;;32.13;18.20;;;;;;;5.45;83.03;100889.44;5094707;28;20498;-49
2023/12/17 06:43:37;;;;;;;32.10;23.02;;;;;;;5.07;82.19;100905.22;5093438;28;20035;-49
2023/12/17 06:46:07;;;;;;;26.52;17.35;;;;;;;5.03;81.75;100912.44;5093355;28;20374;-48
2023/12/17 06:48:34;;;;;;;76.03;17.50;;;;;;;4.80;81.75;100909.69;5094587;28;20610;-48
2023/12/17 06:51:03;;;;;;;36.15;15.32;;;;;;;4.40;80.96;100912.44;5094592;28;20020;-48
2023/12/17 06:53:29;;;;;;;46.53;18.75;;;;;;;4.15;81.27;100917.66;5094806;28;20024;-48
2023/12/17 06:55:55;;;;;;;30.40;19.30;;;;;;;4.08;83.08;100922.44;5092328;28;20024;-48
2023/12/17 06:58:21;;;;;;;32.97;18.85;;;;;;;4.26;83.36;100917.75;5094375;28;20016;-49
2023/12/17 07:00:47;;;;;;;35.83;17.63;;;;;;;4.45;83.07;100912.16;5093075;28;20024;-48
2023/12/17 07:03:18;;;;;;;36.90;21.13;;;;;;;4.33;81.75;100916.41;5093088;28;20031;-48
2023/12/17 07:05:44;;;;;;;46.05;19.00;;;;;;;4.10;81.59;100912.75;5094366;28;20477;-48
2023/12/17 07:08:09;;;;;;;47.17;18.60;;;;;;;3.90;81.49;100902.88;5092955;28;20036;-49
2023/12/17 07:10:35;;;;;;;60.92;18.70;;;;;;;3.74;82.00;100909.13;5094195;28;20051;-49
2023/12/17 07:13:01;;;;;;;48.30;20.23;;;;;;;3.62;81.96;100906.47;5094192;28;20024;-48
2023/12/17 07:15:26;;;;;;;31.85;18.23;;;;;;;3.65;83.74;100907.09;5094127;28;20026;-48
2023/12/17 07:17:52;;;;;;;30.73;18.05;;;;;;;4.07;84.73;100900.00;5094127;28;20040;-48
2023/12/17 07:20:18;;;;;;;46.83;19.33;;;;;;;4.53;84.66;100902.03;5093942;28;20559;-48
2023/12/17 07:22:43;;;;;;;40.53;29.88;;;;;;;4.79;83.30;100899.41;5092714;28;20111;-49
2023/12/17 07:25:10;;;;;;;32.47;18.90;;;;;;;5.00;83.19;100882.25;5094161;28;20024;-48
2023/12/17 07:27:36;;;;;;;31.20;18.88;;;;;;;5.19;82.41;100883.50;5093881;28;20028;-49
2023/12/17 07:30:01;;;;;;;31.83;19.38;;;;;;;5.32;81.68;100881.69;5093875;28;20030;-48
2023/12/17 07:32:27;;;;;;;36.30;18.63;;;;;;;5.50;80.99;100894.31;5093789;28;20047;-48
2023/12/17 07:34:53;;;;;;;25.40;15.50;;;;;;;5.70;80.62;100885.03;5093705;28;20020;-49
2023/12/17 07:37:19;;;;;;;28.73;19.10;;;;;;;5.72;79.35;100886.56;5093694;28;20073;-49
2023/12/17 07:39:44;;;;;;;44.63;20.55;;;;;;;5.59;79.08;100888.41;5093694;28;20077;-49
2023/12/17 07:42:10;;;;;;;41.17;20.95;;;;;;;5.51;78.67;100883.75;5092305;28;20098;-49
2023/12/17 07:44:36;;;;;;;58.50;16.95;;;;;;;5.56;77.50;100892.09;5093707;28;20020;-48
2023/12/17 07:47:01;;;;;;;25.58;16.27;;;;;;;5.45;76.64;100883.41;5093559;28;20024;-49
2023/12/17 07:49:27;;;;;;;48.35;16.05;;;;;;;5.37;76.79;100887.41;5092184;28;20048;-49
2023/12/17 07:51:53;;;;;;;36.28;18.55;;;;;;;5.32;77.39;100886.91;5093388;28;20401;-48
2023/12/17 07:54:19;;;;;;;48.90;15.60;;;;;;;5.39;76.73;100895.94;5093402;28;20578;-49
2023/12/17 07:56:44;;;;;;;36.83;15.75;;;;;;;5.39;75.33;100895.94;5092153;28;20107;-48
2023/12/17 07:59:10;;;;;;;23.08;14.63;;;;;;;5.45;76.58;100893.81;5092009;28;20058;-49
2023/12/17 08:01:36;;;;;;;31.73;16.02;;;;;;;5.50;76.54;100908.16;5093192;28;20024;-49
2023/12/17 08:04:02;;;;;;;25.23;17.48;;;;;;;5.46;75.71;100905.91;5093199;28;20587;-48
2023/12/17 08:06:27;;;;;;;24.95;14.90;;;;;;;5.66;76.05;100901.84;5093168;28;20024;-49
2023/12/17 08:08:54;;;;;;;20.63;14.20;;;;;;;5.67;75.99;100899.09;5093061;28;20028;-49
2023/12/17 08:11:20;;;;;;;193.00;19.25;;;;;;;5.81;75.37;100905.88;5091381;28;20131;-49
2023/12/17 08:13:46;;;;;;;50.75;15.75;;;;;;;5.73;74.28;100893.44;5091716;28;20081;-49
2023/12/17 08:16:12;;;;;;;39.55;17.00;;;;;;;5.67;74.50;100903.47;5092930;28;20024;-48
2023/12/17 08:18:38;;;;;;;73.00;43.15;;;;;;;5.49;73.46;100898.66;5092911;28;20016;-48
2023/12/17 08:21:04;;;;;;;57.90;14.57;;;;;;;5.38;73.93;100912.50;5092824;28;20020;-48
2023/12/17 08:23:31;;;;;;;46.70;13.02;;;;;;;5.34;73.50;100912.84;5092806;28;20023;-48
2023/12/17 08:25:57;;;;;;;59.88;15.88;;;;;;;5.18;73.55;100913.09;5092718;28;20031;-48
2023/12/17 08:28:23;;;;;;;34.25;20.73;;;;;;;5.34;74.76;100912.84;5091445;28;20103;-48
2023/12/17 08:30:50;;;;;;;42.20;18.15;;;;;;;5.82;74.11;100909.34;5074519;28;20024;-48
2023/12/17 08:33:16;;;;;;;33.63;17.48;;;;;;;6.10;73.42;100906.34;5091226;28;20024;-49
2023/12/17 08:35:44;;;;;;;73.30;14.32;;;;;;;6.21;72.56;100902.91;5074387;28;20020;-49
2023/12/17 08:38:10;;;;;;;88.43;13.05;;;;;;;5.99;71.93;100908.91;5091379;28;20091;-49
2023/12/17 08:40:37;;;;;;;29.30;16.25;;;;;;;6.03;72.40;100909.53;5091186;28;20412;-49
2023/12/17 08:43:12;;;;;;;31.25;23.27;;;;;;;6.23;71.96;100902.81;5091124;28;20126;-48
2023/12/17 08:45:38;;;;;;;22.98;15.25;;;;;;;6.33;71.07;100903.75;5092559;28;20036;-49
2023/12/17 08:48:04;;;;;;;27.80;17.50;;;;;;;6.74;71.53;100902.31;5092324;28;20110;-48
2023/12/17 08:50:29;;;;;;;29.58;13.52;;;;;;;7.38;71.11;100902.41;5091045;28;20118;-49
2023/12/17 08:52:55;;;;;;;24.13;14.25;;;;;;;7.78;70.57;100899.09;5092288;28;20489;-49
2023/12/17 08:55:20;;;;;;;22.50;15.98;;;;;;;7.99;68.09;100901.72;5092272;28;20065;-49
2023/12/17 08:57:47;;;;;;;27.58;13.65;;;;;;;8.12;68.04;100900.69;5092333;28;20043;-49
2023/12/17 09:00:13;;;;;;;34.05;13.95;;;;;;;8.33;67.21;100892.78;5092187;28;20028;-49
2023/12/17 09:02:40;;;;;;;24.85;13.52;;;;;;;8.67;65.78;100897.78;5092212;28;20393;-49
2023/12/17 09:05:06;;;;;;;30.10;17.65;;;;;;;9.39;64.74;100894.03;5092138;28;20497;-49
2023/12/17 09:07:32;;;;;;;309.75;230.70;;;;;;;9.81;62.91;100891.09;5090841;28;20437;-49
2023/12/17 09:09:58;;;;;;;47.97;30.70;;;;;;;10.27;62.07;100896.50;5090807;28;20028;-49
2023/12/17 09:12:24;;;;;;;23.90;19.02;;;;;;;10.80;61.29;100895.88;5090443;28;20043;-50
2023/12/17 09:14:50;;;;;;;32.08;14.93;;;;;;;11.16;58.86;100891.47;5092273;28;20024;-49
2023/12/17 09:17:16;;;;;;;36.88;23.48;;;;;;;11.14;56.64;100890.00;5091945;28;20020;-49
2023/12/17 09:19:42;;;;;;;46.78;12.60;;;;;;;10.86;56.18;100894.47;5073384;28;20020;-49
2023/12/17 09:22:08;;;;;;;19.90;14.80;;;;;;;10.78;56.52;100896.03;5091935;28;20031;-49
2023/12/17 09:24:34;;;;;;;18.50;14.30;;;;;;;10.62;57.85;100900.25;5090973;28;20028;-49
2023/12/17 09:27:00;;;;;;;26.67;14.30;;;;;;;10.23;58.85;100913.53;5091882;28;20420;-49
2023/12/17 09:29:26;;;;;;;21.20;13.38;;;;;;;10.14;59.16;100908.16;5092178;28;20067;-50
2023/12/17 09:31:52;;;;;;;17.40;12.40;;;;;;;10.06;59.59;100900.16;5091718;28;20055;-49
2023/12/17 09:34:18;;;;;;;58.40;17.35;;;;;;;10.40;57.93;100902.28;5090452;28;20047;-49
2023/12/17 09:36:43;;;;;;;76.55;14.65;;;;;;;10.45;56.99;100900.06;5090464;28;20032;-50
2023/12/17 09:39:09;;;;;;;23.60;19.20;;;;;;;10.06;56.78;100905.41;5107513;28;20083;-49
2023/12/17 09:41:36;;;;;;;29.10;21.45;;;;;;;10.05;58.05;100909.00;5090404;28;20035;-49
2023/12/17 09:44:04;;;;;;;38.83;22.20;;;;;;;10.26;57.09;100893.06;5091749;28;20025;-49
2023/12/17 09:46:29;;;;;;;28.02;25.25;;;;;;;10.33;56.60;100906.47;5073567;28;20034;-49
2023/12/17 09:48:55;;;;;;;21.90;14.38;;;;;;;10.57;56.51;100904.16;5090375;28;20528;-49
2023/12/17 09:51:23;;;;;;;15.48;11.32;;;;;;;11.47;54.84;100904.28;5090242;28;20020;-49
2023/12/17 09:53:49;;;;;;;13.13;11.73;;;;;;;11.74;53.78;100892.81;5091867;28;20031;-50
2023/12/17 09:56:15;;;;;;;17.27;12.38;;;;;;;12.45;52.33;100901.47;5090269;28;20393;-49
2023/12/17 09:58:40;;;;;;;20.58;13.60;;;;;;;12.80;50.38;100894.38;5090310;28;20024;-49
2023/12/17 10:01:06;;;;;;;15.30;12.27;;;;;;;12.92;49.31;100889.63;5090273;28;20024;-49
2023/12/17 10:03:33;;;;;;;20.08;16.75;;;;;;;12.99;48.78;100883.53;5090235;28;20036;-49
2023/12/17 10:05:59;;;;;;;13.10;11.70;;;;;;;13.09;48.00;100879.94;5091530;28;20026;-49
2023/12/17 10:08:25;;;;;;;17.20;11.95;;;;;;;13.67;48.23;100876.34;5090195;28;20031;-47
2023/12/17 10:10:51;;;;;;;13.38;11.57;;;;;;;14.51;47.17;100863.59;5089871;28;20040;-47
2023/12/17 10:13:22;;;;;;;16.15;13.15;;;;;;;15.46;46.27;100857.22;5090061;28;20020;-47
2023/12/17 10:15:48;;;;;;;13.45;11.88;;;;;;;16.36;44.56;100860.78;5091490;28;20060;-47
2023/12/17 10:18:16;;;;;;;13.10;11.70;;;;;;;16.86;42.21;100856.50;5091424;28;20070;-47
2023/12/17 10:20:43;;;;;;;15.82;12.18;;;;;;;16.93;40.97;100854.72;5091361;28;20016;-47
2023/12/17 10:23:08;;;;;;;14.40;12.00;;;;;;;17.19;40.79;100848.03;5091356;28;20024;-47
2023/12/17 10:25:34;;;;;;;13.23;11.82;;;;;;;17.29;40.10;100853.84;5091299;28;20021;-47
2023/12/17 10:28:00;;;;;;;13.35;12.05;;;;;;;17.32;39.30;100852.63;5090001;28;20027;-47
2023/12/17 10:30:33;;;;;;;13.98;10.82;;;;;;;16.93;39.90;100851.25;5073173;28;20494;-47
2023/12/17 10:33:03;;;;;;;14.00;11.73;;;;;;;16.63;40.18;100853.97;5093614;28;20112;-47
2023/12/17 10:35:33;;;;;;;14.35;11.63;;;;;;;16.55;39.92;100840.81;5093623;28;20078;-47
2023/12/17 10:38:00;;;;;;;12.55;11.02;;;;;;;16.57;39.58;100836.97;5093575;28;20114;-47
2023/12/17 10:40:30;;;;;;;17.30;11.25;;;;;;;16.46;40.03;100840.13;5094883;28;20386;-47
2023/12/17 10:42:58;;;;;;;12.70;9.63;;;;;;;16.21;40.38;100841.44;5094816;28;20028;-47
2023/12/17 10:45:25;;;;;;;12.48;11.10;;;;;;;15.87;40.83;100834.84;5093383;28;20031;-47
2023/12/17 10:47:58;;;;;;;11.35;10.25;;;;;;;15.61;42.15;100833.41;5093392;28;20500;-47
2023/12/17 10:50:26;;;;;;;11.27;10.13;;;;;;;15.81;42.00;100825.81;5094924;28;20031;-47
2023/12/17 10:52:52;;;;;;;16.52;10.40;;;;;;;16.31;41.66;100823.41;5093257;28;20024;-47
2023/12/17 10:55:19;;;;;;;11.07;9.98;;;;;;;17.08;40.02;100816.69;5094506;28;20028;-47
2023/12/17 10:57:54;;;;;;;11.63;10.23;;;;;;;17.45;39.45;100820.91;5093226;28;20558;-47
2023/12/17 11:00:23;;;;;;;11.13;10.05;;;;;;;17.72;38.37;100813.13;5094461;28;20030;-47
2023/12/17 11:02:54;;;;;;;14.75;11.07;;;;;;;17.76;38.03;100804.56;5093139;28;20016;-47
2023/12/17 11:05:20;;;;;;;13.48;10.85;;;;;;;17.71;38.41;100807.00;5093087;28;20063;-47
2023/12/17 11:07:46;;;;;;;15.90;11.15;;;;;;;17.81;38.31;100809.31;5092992;28;20056;-47
2023/12/17 11:10:12;;;;;;;13.52;10.70;;;;;;;18.04;37.47;100800.25;5094283;28;20024;-47